Time;durP1;ratioP1;P1;durP2;ratioP2;P2;SDS_P1;SDS_P2;PMS_P1;PMS_P2;Temp;Humidity;BMP_temperature;BMP_pressure;BME280_temperature;BME280_humidity;BME280_pressure;Samples;Min_cycle;Max_cycle;Signal;HPM_P1;HPM_P2
2023/12/05 00:01:29;;;;;;;17.57;15.97;;;;;;;2.90;100.00;99012.88;5059709;28;20766;-75
2023/12/05 00:03:55;;;;;;;17.47;15.13;;;;;;;2.90;100.00;99015.44;5061455;28;20270;-75
2023/12/05 00:06:20;;;;;;;17.33;15.53;;;;;;;2.90;100.00;99015.44;5062306;28;20274;-75
2023/12/05 00:08:45;;;;;;;17.70;15.83;;;;;;;2.91;100.00;99022.25;5057581;28;20190;-75
2023/12/05 00:11:10;;;;;;;17.43;15.63;;;;;;;2.90;100.00;99011.16;5058832;28;20206;-76
2023/12/05 00:13:36;;;;;;;16.93;15.23;;;;;;;2.87;100.00;99020.53;5059592;28;21213;-75
2023/12/05 00:16:01;;;;;;;16.27;14.77;;;;;;;2.90;100.00;99023.94;5057951;28;20205;-76
2023/12/05 00:18:26;;;;;;;17.17;15.40;;;;;;;2.93;100.00;99020.56;5059420;28;20281;-75
2023/12/05 00:20:52;;;;;;;18.30;16.40;;;;;;;2.94;100.00;99023.94;5061804;28;20205;-75
2023/12/05 00:23:18;;;;;;;17.97;16.07;;;;;;;2.96;100.00;99019.69;5064143;28;20194;-76
2023/12/05 00:25:43;;;;;;;17.20;15.47;;;;;;;3.01;100.00;99025.69;5061493;28;20240;-76
2023/12/05 00:28:09;;;;;;;17.37;15.70;;;;;;;3.00;100.00;99024.81;5061074;28;20189;-76
2023/12/05 00:30:35;;;;;;;17.60;15.90;;;;;;;3.00;100.00;99029.09;5062984;28;20201;-76
2023/12/05 00:33:00;;;;;;;17.87;16.07;;;;;;;3.00;100.00;99024.81;5058151;28;20216;-76
2023/12/05 00:35:26;;;;;;;17.90;16.17;;;;;;;3.01;100.00;99018.84;5061956;28;20208;-75
2023/12/05 00:37:51;;;;;;;19.00;17.10;;;;;;;3.04;100.00;99025.66;5062906;28;20265;-76
2023/12/05 00:40:17;;;;;;;19.77;17.77;;;;;;;3.05;100.00;99018.00;5061234;28;20715;-76
2023/12/05 00:42:42;;;;;;;17.90;16.00;;;;;;;3.03;100.00;99032.47;5058578;28;20316;-75
2023/12/05 00:45:09;;;;;;;17.53;15.70;;;;;;;2.99;100.00;99028.22;5060301;28;20281;-76
2023/12/05 00:47:35;;;;;;;18.00;16.20;;;;;;;2.97;100.00;99039.28;5062387;28;20196;-76
2023/12/05 00:50:00;;;;;;;18.60;16.70;;;;;;;2.97;100.00;99034.19;5061691;28;20182;-76
2023/12/05 00:52:25;;;;;;;19.20;16.70;;;;;;;2.85;100.00;99028.19;5072242;28;20962;-76
2023/12/05 00:54:50;;;;;;;17.80;16.00;;;;;;;2.84;100.00;99030.75;5067977;28;20174;-77
2023/12/05 00:57:16;;;;;;;16.70;15.00;;;;;;;2.81;100.00;99031.59;5062032;28;20323;-76
2023/12/05 00:59:41;;;;;;;16.47;14.87;;;;;;;2.81;100.00;99026.47;5062438;28;20182;-75
2023/12/05 01:02:07;;;;;;;16.30;14.60;;;;;;;2.80;100.00;99031.59;5060443;28;20223;-77
2023/12/05 01:04:32;;;;;;;17.10;15.40;;;;;;;2.81;100.00;99034.16;5059665;28;20194;-76
2023/12/05 01:06:57;;;;;;;16.17;14.43;;;;;;;2.85;100.00;99035.00;5060692;28;20275;-77
2023/12/05 01:09:23;;;;;;;18.83;16.97;;;;;;;2.87;100.00;99038.41;5059800;28;20217;-77
2023/12/05 01:11:48;;;;;;;17.43;15.47;;;;;;;2.86;100.00;99034.16;5057756;28;20263;-78
2023/12/05 01:14:13;;;;;;;17.23;15.57;;;;;;;2.87;100.00;99036.69;5058306;28;20191;-77
2023/12/05 01:16:43;;;;;;;18.87;16.87;;;;;;;2.91;100.00;99032.47;5060569;28;20208;-76
2023/12/05 01:19:09;;;;;;;18.47;16.67;;;;;;;2.95;100.00;99036.72;5059542;28;20221;-77
2023/12/05 01:21:34;;;;;;;17.43;15.77;;;;;;;2.99;100.00;99041.00;5059176;28;20812;-76
2023/12/05 01:23:59;;;;;;;18.90;16.17;;;;;;;3.03;100.00;99040.16;5059246;28;20608;-76
2023/12/05 01:26:25;;;;;;;16.43;14.83;;;;;;;3.03;100.00;99047.81;5056577;28;20178;-75
2023/12/05 01:28:50;;;;;;;16.73;14.97;;;;;;;3.08;100.00;99039.31;5060254;28;20186;-76
2023/12/05 01:31:15;;;;;;;15.80;14.33;;;;;;;3.06;100.00;99044.41;5062202;28;20222;-75
2023/12/05 01:33:40;;;;;;;16.63;14.83;;;;;;;3.06;100.00;99049.50;5058734;28;20224;-76
2023/12/05 01:36:10;;;;;;;15.80;14.20;;;;;;;3.04;100.00;99048.66;5057468;28;20241;-77
2023/12/05 01:38:35;;;;;;;15.50;13.93;;;;;;;3.05;100.00;99043.56;5058061;28;20182;-75
2023/12/05 01:41:01;;;;;;;15.43;13.83;;;;;;;3.08;100.00;99054.66;5060099;28;20263;-76
2023/12/05 01:43:26;;;;;;;16.30;14.57;;;;;;;3.05;100.00;99051.22;5060625;28;20205;-74
2023/12/05 01:45:52;;;;;;;14.80;13.47;;;;;;;3.08;100.00;99052.09;5056878;28;20170;-74
2023/12/05 01:48:18;;;;;;;15.50;14.00;;;;;;;3.08;100.00;99047.81;5060491;28;20184;-74
2023/12/05 01:50:44;;;;;;;14.80;13.50;;;;;;;3.11;100.00;99040.16;5058497;28;20683;-74
2023/12/05 01:53:11;;;;;;;15.07;13.67;;;;;;;3.13;100.00;99052.94;5058854;28;20274;-75
2023/12/05 01:55:37;;;;;;;16.90;15.27;;;;;;;3.14;100.00;99042.72;5058367;28;20206;-73
2023/12/05 01:58:04;;;;;;;15.63;14.03;;;;;;;3.16;100.00;99043.59;5064188;28;20186;-74
2023/12/05 02:00:30;;;;;;;16.33;14.73;;;;;;;3.15;100.00;99047.00;5064224;28;20193;-75
2023/12/05 02:02:56;;;;;;;16.37;14.67;;;;;;;3.16;100.00;99050.38;5061043;28;20189;-77
2023/12/05 02:05:22;;;;;;;16.17;14.57;;;;;;;3.18;100.00;99057.19;5059255;28;20196;-74
2023/12/05 02:07:48;;;;;;;16.97;15.17;;;;;;;3.20;100.00;99064.88;5057309;28;20194;-74
2023/12/05 02:10:13;;;;;;;17.17;15.57;;;;;;;3.18;100.00;99064.88;5058982;28;20259;-74
2023/12/05 02:12:39;;;;;;;17.13;15.47;;;;;;;3.19;100.00;99073.41;5058460;28;20862;-75
2023/12/05 02:15:06;;;;;;;16.73;15.00;;;;;;;3.14;100.00;99068.28;5058385;28;20217;-74
2023/12/05 02:17:56;;;;;;;16.93;14.53;;;;;;;3.07;100.00;99068.28;5057265;28;20190;-74
2023/12/05 02:20:35;;;;;;;15.40;13.87;;;;;;;3.00;100.00;99052.91;5061599;28;20190;-74
2023/12/05 02:23:00;;;;;;;11.43;10.33;;;;;;;3.10;100.00;99051.25;5057654;28;20654;-76
2023/12/05 02:25:54;;;;;;;10.33;9.37;;;;;;;3.32;100.00;99044.44;5056233;28;20228;-76
2023/12/05 02:28:20;;;;;;;7.80;7.00;;;;;;;3.65;100.00;99037.63;5058973;28;20186;-74
2023/12/05 02:30:46;;;;;;;8.60;6.63;;;;;;;3.72;100.00;99043.56;5057754;28;20205;-75
2023/12/05 02:33:11;;;;;;;5.90;5.33;;;;;;;3.81;100.00;99042.72;5059254;28;20196;-74
2023/12/05 02:35:37;;;;;;;5.47;4.97;;;;;;;3.93;100.00;99037.56;5057625;28;20217;-76
2023/12/05 02:38:06;;;;;;;6.27;5.67;;;;;;;4.00;100.00;99035.00;5057628;28;20185;-76
2023/12/05 02:40:51;;;;;;;8.07;7.37;;;;;;;4.05;100.00;99031.56;5058486;28;20189;-75
2023/12/05 02:43:24;;;;;;;8.07;7.33;;;;;;;4.07;100.00;99029.88;5038044;28;20256;-75
2023/12/05 02:45:52;;;;;;;9.43;8.63;;;;;;;4.08;100.00;99034.09;5054960;28;20181;-75
2023/12/05 02:48:19;;;;;;;10.87;9.87;;;;;;;4.09;100.00;99032.41;5078428;28;20239;-74
2023/12/05 02:50:45;;;;;;;10.97;9.97;;;;;;;4.08;100.00;99033.25;5068654;28;20316;-76
2023/12/05 02:53:10;;;;;;;10.33;9.33;;;;;;;4.11;100.00;99023.03;5060832;28;20706;-75
2023/12/05 02:55:38;;;;;;;9.63;8.73;;;;;;;4.14;100.00;99027.25;5058875;28;20209;-76
2023/12/05 02:58:03;;;;;;;9.43;8.53;;;;;;;4.17;100.00;99019.59;5060765;28;20224;-75
2023/12/05 03:00:28;;;;;;;9.50;8.60;;;;;;;4.19;100.00;99025.56;5059006;28;20276;-75
2023/12/05 03:02:54;;;;;;;9.50;8.63;;;;;;;4.21;100.00;99024.69;5060802;28;20198;-75
2023/12/05 03:05:19;;;;;;;9.20;8.40;;;;;;;4.25;100.00;99028.94;5060543;28;21266;-75
2023/12/05 03:07:44;;;;;;;9.10;8.20;;;;;;;4.27;100.00;99032.34;5057476;28;20225;-75
2023/12/05 03:10:10;;;;;;;8.73;7.87;;;;;;;4.30;100.00;99021.25;5059985;28;20213;-75
2023/12/05 03:12:35;;;;;;;7.90;7.20;;;;;;;4.32;100.00;99024.66;5058918;28;20203;-74
2023/12/05 03:15:00;;;;;;;7.03;6.33;;;;;;;4.35;100.00;99022.09;5059292;28;20189;-74
2023/12/05 03:17:26;;;;;;;7.90;6.53;;;;;;;4.40;100.00;99037.44;5055836;28;20197;-74
2023/12/05 03:19:51;;;;;;;5.97;5.47;;;;;;;4.44;100.00;99026.31;5060485;28;20195;-75
2023/12/05 03:22:16;;;;;;;5.03;4.60;;;;;;;4.50;100.00;99031.41;5056211;28;20920;-75
2023/12/05 03:24:42;;;;;;;4.97;4.07;;;;;;;4.56;100.00;99036.50;5060577;28;20284;-75
2023/12/05 03:27:07;;;;;;;4.47;3.70;;;;;;;4.65;100.00;99042.44;5059235;28;20269;-74
2023/12/05 03:29:33;;;;;;;2.80;2.37;;;;;;;4.71;100.00;99033.00;5059925;28;20212;-75
2023/12/05 03:31:59;;;;;;;2.13;1.87;;;;;;;4.78;100.00;99040.66;5060383;28;20219;-75
2023/12/05 03:34:24;;;;;;;1.40;1.27;;;;;;;4.84;100.00;99032.97;5058201;28;20237;-76
2023/12/05 03:36:49;;;;;;;1.40;1.20;;;;;;;4.92;100.00;99038.88;5059944;28;20214;-75
2023/12/05 03:39:14;;;;;;;2.50;0.83;;;;;;;4.99;100.00;99045.66;5059364;28;20236;-75
2023/12/05 03:41:43;;;;;;;1.07;0.80;;;;;;;5.05;100.00;99042.22;5060221;28;20979;-74
2023/12/05 03:44:08;;;;;;;0.80;0.80;;;;;;;5.12;100.00;99045.59;5060316;28;20756;-74
2023/12/05 03:46:33;;;;;;;0.93;0.70;;;;;;;5.17;100.00;99047.25;5060938;28;20186;-75
2023/12/05 03:48:59;;;;;;;1.63;0.70;;;;;;;5.24;100.00;99045.50;5059616;28;20189;-75
2023/12/05 03:51:24;;;;;;;0.87;0.80;;;;;;;5.28;100.00;99038.63;5060137;28;20204;-75
2023/12/05 03:53:50;;;;;;;0.80;0.80;;;;;;;5.31;100.00;99038.63;5063885;28;20211;-74
2023/12/05 03:56:16;;;;;;;1.30;0.80;;;;;;;5.35;100.00;99045.44;5063231;28;20217;-75
2023/12/05 03:58:41;;;;;;;0.90;0.70;;;;;;;5.35;100.00;99045.44;5063376;28;20190;-75
2023/12/05 04:01:07;;;;;;;0.90;0.70;;;;;;;5.37;100.00;99046.25;5063904;28;20731;-76
2023/12/05 04:03:34;;;;;;;1.30;0.77;;;;;;;5.40;100.00;99050.53;5064935;28;20188;-74
2023/12/05 04:05:59;;;;;;;1.40;0.80;;;;;;;5.39;100.00;99043.69;5063687;28;20613;-75
2023/12/05 04:08:24;;;;;;;1.70;0.70;;;;;;;5.41;100.00;99047.94;5061210;28;20233;-75
2023/12/05 04:10:50;;;;;;;1.93;0.70;;;;;;;5.42;100.00;99044.50;5063812;28;20991;-75
2023/12/05 04:13:15;;;;;;;1.17;0.90;;;;;;;5.41;100.00;99050.50;5062030;28;20188;-76
2023/12/05 04:15:41;;;;;;;0.90;0.80;;;;;;;5.44;100.00;99047.06;5065130;28;20212;-75
2023/12/05 04:18:07;;;;;;;1.60;0.77;;;;;;;5.45;100.00;99043.63;5063824;28;20265;-75
2023/12/05 04:20:32;;;;;;;1.23;0.77;;;;;;;5.46;100.00;99056.47;5062795;28;20270;-76
2023/12/05 04:22:57;;;;;;;0.90;0.77;;;;;;;5.49;100.00;99053.00;5062725;28;20208;-75
2023/12/05 04:25:23;;;;;;;1.23;0.70;;;;;;;5.51;100.00;99045.31;5061449;28;20192;-75
2023/12/05 04:27:48;;;;;;;0.90;0.53;;;;;;;5.54;100.00;99050.38;5062232;28;20181;-74
2023/12/05 04:30:14;;;;;;;1.00;0.70;;;;;;;5.57;100.00;99052.94;5062502;28;20778;-76
2023/12/05 04:32:39;;;;;;;0.80;0.70;;;;;;;5.58;100.00;99055.50;5061378;28;20206;-76
2023/12/05 04:35:05;;;;;;;1.60;0.70;;;;;;;5.61;100.00;99054.63;5063279;28;20193;-75
2023/12/05 04:37:30;;;;;;;1.00;0.80;;;;;;;5.61;100.00;99057.19;5061710;28;20694;-76
2023/12/05 04:39:56;;;;;;;1.37;0.63;;;;;;;5.60;100.00;99061.44;5063200;28;20675;-76
2023/12/05 04:42:21;;;;;;;1.90;0.93;;;;;;;5.62;100.00;99058.91;5075144;28;20277;-76
2023/12/05 04:44:46;;;;;;;3.33;1.00;;;;;;;5.63;100.00;99058.03;5069747;28;20183;-75
2023/12/05 04:47:11;;;;;;;1.43;0.80;;;;;;;5.62;100.00;99054.59;5062586;28;20208;-75
2023/12/05 04:49:37;;;;;;;1.40;0.67;;;;;;;5.65;100.00;99053.75;5060735;28;20182;-75
2023/12/05 04:52:03;;;;;;;1.30;1.00;;;;;;;5.65;100.00;99062.28;5062235;28;20689;-76
2023/12/05 04:54:28;;;;;;;2.03;0.90;;;;;;;5.66;100.00;99065.72;5062445;28;20201;-74
2023/12/05 04:56:54;;;;;;;1.83;1.10;;;;;;;5.69;100.00;99065.66;5062093;28;20198;-75
2023/12/05 04:59:19;;;;;;;0.90;0.70;;;;;;;5.69;100.00;99068.22;5060215;28;20265;-75
2023/12/05 05:01:44;;;;;;;3.80;2.60;;;;;;;5.71;100.00;99066.50;5059645;28;20202;-75
2023/12/05 05:04:10;;;;;;;21.73;20.03;;;;;;;5.71;100.00;99058.81;5060648;28;20179;-74
2023/12/05 05:06:35;;;;;;;3.37;3.17;;;;;;;5.73;100.00;99062.22;5061918;28;20204;-76
2023/12/05 05:09:00;;;;;;;2.90;1.90;;;;;;;5.73;100.00;99072.47;5060828;28;20254;-76
2023/12/05 05:11:26;;;;;;;1.13;1.03;;;;;;;5.74;100.00;99068.22;5061991;28;20215;-75
2023/12/05 05:13:51;;;;;;;2.53;2.33;;;;;;;5.74;100.00;99069.06;5062520;28;20248;-76
2023/12/05 05:16:16;;;;;;;4.00;3.07;;;;;;;5.76;100.00;99074.16;5060765;28;20208;-75
2023/12/05 05:18:42;;;;;;;3.87;1.93;;;;;;;5.82;100.00;99073.28;5059369;28;20229;-75
2023/12/05 05:21:07;;;;;;;2.30;1.53;;;;;;;5.81;100.00;99082.69;5060246;28;20326;-75
2023/12/05 05:23:33;;;;;;;2.00;1.60;;;;;;;5.83;100.00;99074.94;5060909;28;20281;-76
2023/12/05 05:25:59;;;;;;;1.73;1.33;;;;;;;5.86;100.00;99085.19;5062454;28;20617;-75
2023/12/05 05:28:25;;;;;;;2.33;1.50;;;;;;;5.88;100.00;99086.03;5061382;28;20658;-76
2023/12/05 05:30:54;;;;;;;1.20;1.07;;;;;;;5.92;100.00;99080.84;5062376;28;20306;-76
2023/12/05 05:33:23;;;;;;;2.20;1.10;;;;;;;5.95;100.00;99078.25;5058939;28;20185;-75
2023/12/05 05:35:49;;;;;;;2.60;1.20;;;;;;;5.95;100.00;99080.00;5061469;28;20218;-76
2023/12/05 05:38:14;;;;;;;2.70;1.13;;;;;;;5.99;100.00;99079.09;5060067;28;20179;-75
2023/12/05 05:40:40;;;;;;;2.60;1.03;;;;;;;5.99;100.00;99079.09;5060167;28;20189;-75
2023/12/05 05:43:05;;;;;;;1.67;0.90;;;;;;;5.99;100.00;99079.09;5061799;28;20195;-76
2023/12/05 05:45:31;;;;;;;1.83;1.03;;;;;;;6.00;100.00;99091.09;5060722;28;20219;-75
2023/12/05 05:47:56;;;;;;;1.30;0.97;;;;;;;6.03;100.00;99087.66;5061502;28;20683;-76
2023/12/05 05:50:22;;;;;;;2.57;1.17;;;;;;;6.07;100.00;99089.31;5060866;28;20652;-75
2023/12/05 05:52:47;;;;;;;1.73;1.03;;;;;;;6.07;100.00;99089.31;5061354;28;20241;-75
2023/12/05 05:55:13;;;;;;;1.47;0.93;;;;;;;6.13;100.00;99090.97;5061189;28;20192;-76
2023/12/05 05:57:38;;;;;;;2.40;0.90;;;;;;;6.15;100.00;99089.22;5061386;28;20200;-75
2023/12/05 06:00:04;;;;;;;2.83;1.13;;;;;;;6.16;100.00;99099.50;5061368;28;20269;-75
2023/12/05 06:02:29;;;;;;;1.53;1.00;;;;;;;6.19;100.00;99088.34;5060476;28;20205;-76
2023/12/05 06:04:55;;;;;;;1.80;1.00;;;;;;;6.19;100.00;99091.78;5061949;28;20199;-75
2023/12/05 06:07:22;;;;;;;3.87;1.17;;;;;;;6.19;100.00;99088.34;5059020;28;20203;-76
2023/12/05 06:09:47;;;;;;;1.60;0.97;;;;;;;6.20;100.00;99093.44;5062549;28;20200;-75
2023/12/05 06:12:13;;;;;;;3.33;1.20;;;;;;;6.21;100.00;99097.72;5060617;28;20715;-75
2023/12/05 06:14:38;;;;;;;2.77;1.33;;;;;;;6.24;100.00;99094.28;5059648;28;20237;-75
2023/12/05 06:17:03;;;;;;;1.93;1.10;;;;;;;6.24;100.00;99090.00;5061956;28;20218;-76
2023/12/05 06:19:29;;;;;;;2.70;1.27;;;;;;;6.23;100.00;99096.00;5060539;28;20197;-75
2023/12/05 06:21:54;;;;;;;1.63;1.10;;;;;;;6.24;100.00;99095.13;5061491;28;20674;-75
2023/12/05 06:24:19;;;;;;;2.03;0.93;;;;;;;6.23;100.00;99090.84;5059685;28;20188;-75
2023/12/05 06:26:45;;;;;;;1.93;0.90;;;;;;;6.26;100.00;99097.72;5062127;28;20285;-75
2023/12/05 06:29:10;;;;;;;3.27;1.27;;;;;;;6.28;100.00;99102.81;5060793;28;20243;-75
2023/12/05 06:31:35;;;;;;;1.70;1.10;;;;;;;6.27;100.00;99094.28;5060460;28;20600;-75
2023/12/05 06:34:01;;;;;;;2.67;1.23;;;;;;;6.27;100.00;99091.69;5075704;28;20202;-76
2023/12/05 06:36:26;;;;;;;2.60;1.13;;;;;;;6.28;100.00;99097.69;5073078;28;20212;-76
2023/12/05 06:38:51;;;;;;;2.33;1.23;;;;;;;6.30;100.00;99095.94;5061728;28;20211;-75
2023/12/05 06:41:17;;;;;;;2.83;1.30;;;;;;;6.31;100.00;99100.22;5059024;28;20317;-75
2023/12/05 06:43:43;;;;;;;3.77;1.13;;;;;;;6.33;100.00;99101.91;5061994;28;20208;-75
2023/12/05 06:46:08;;;;;;;2.60;1.13;;;;;;;6.35;100.00;99110.44;5061179;28;20299;-74
2023/12/05 06:48:33;;;;;;;1.83;1.10;;;;;;;6.34;100.00;99119.00;5060241;28;20289;-77
2023/12/05 06:50:59;;;;;;;1.30;0.83;;;;;;;6.37;100.00;99107.84;5060230;28;20215;-76
2023/12/05 06:53:24;;;;;;;1.80;0.90;;;;;;;6.38;100.00;99101.84;5057288;28;20219;-75
2023/12/05 06:55:49;;;;;;;2.13;1.10;;;;;;;6.40;100.00;99107.81;5057972;28;20212;-75
2023/12/05 06:58:15;;;;;;;2.73;1.30;;;;;;;6.38;100.00;99104.41;5057138;28;20580;-77
2023/12/05 07:00:41;;;;;;;2.93;1.07;;;;;;;6.37;100.00;99120.69;5060629;28;20245;-75
2023/12/05 07:03:07;;;;;;;2.07;1.10;;;;;;;6.37;100.00;99123.25;5061691;28;20282;-75
2023/12/05 07:05:32;;;;;;;2.07;1.27;;;;;;;6.36;100.00;99109.56;5064403;28;20299;-76
2023/12/05 07:07:57;;;;;;;2.47;1.00;;;;;;;6.35;100.00;99120.72;5060335;28;20242;-75
2023/12/05 07:10:23;;;;;;;2.23;1.10;;;;;;;6.38;100.00;99127.53;5061857;28;20189;-76
2023/12/05 07:12:48;;;;;;;3.00;1.20;;;;;;;6.37;100.00;99134.41;5059363;28;20239;-75
2023/12/05 07:15:14;;;;;;;2.23;1.20;;;;;;;6.37;100.00;99136.09;5055020;28;20232;-75
2023/12/05 07:17:39;;;;;;;2.53;1.20;;;;;;;6.40;100.00;99136.09;5059346;28;20531;-76
2023/12/05 07:20:06;;;;;;;2.50;1.20;;;;;;;6.39;100.00;99145.53;5062301;28;20308;-75
2023/12/05 07:22:31;;;;;;;1.77;1.00;;;;;;;6.42;100.00;99147.22;5057382;28;20222;-77
2023/12/05 07:24:56;;;;;;;3.47;1.23;;;;;;;6.43;100.00;99146.34;5059374;28;20189;-76
2023/12/05 07:27:22;;;;;;;2.97;1.23;;;;;;;6.43;100.00;99151.47;5064782;28;20185;-74
2023/12/05 07:29:47;;;;;;;2.20;1.17;;;;;;;6.44;100.00;99153.19;5067172;28;20648;-75
2023/12/05 07:32:12;;;;;;;2.40;1.03;;;;;;;6.48;100.00;99159.13;5063265;28;20207;-75
2023/12/05 07:34:38;;;;;;;2.30;1.20;;;;;;;6.50;100.00;99159.97;5065055;28;20179;-76
2023/12/05 07:37:03;;;;;;;2.37;1.20;;;;;;;6.50;100.00;99158.28;5067737;28;20198;-76
2023/12/05 07:39:28;;;;;;;1.70;0.93;;;;;;;6.54;100.00;99167.63;5065226;28;21110;-75
2023/12/05 07:41:54;;;;;;;1.57;1.07;;;;;;;6.52;100.00;99164.22;5065758;28;20207;-75
2023/12/05 07:44:19;;;;;;;2.47;1.40;;;;;;;6.52;100.00;99169.38;5065844;28;20189;-75
2023/12/05 07:46:45;;;;;;;2.53;1.30;;;;;;;6.54;100.00;99171.94;5066874;28;20184;-75
2023/12/05 07:49:10;;;;;;;1.93;1.63;;;;;;;6.54;100.00;99177.91;5064419;28;20193;-76
2023/12/05 07:51:36;;;;;;;2.20;1.20;;;;;;;6.60;100.00;99192.41;5067222;28;20612;-76
2023/12/05 07:54:01;;;;;;;2.23;1.33;;;;;;;6.59;100.00;99190.72;5065283;28;20184;-76
2023/12/05 07:56:27;;;;;;;2.13;1.00;;;;;;;6.60;100.00;99197.56;5062857;28;20208;-75
2023/12/05 07:58:52;;;;;;;3.67;1.40;;;;;;;6.61;100.00;99196.69;5064144;28;20720;-75
2023/12/05 08:01:17;;;;;;;1.60;1.17;;;;;;;6.62;100.00;99205.28;5065017;28;20211;-76
2023/12/05 08:03:43;;;;;;;4.30;1.20;;;;;;;6.64;100.00;99203.53;5065254;28;20246;-76
2023/12/05 08:06:09;;;;;;;2.63;1.33;;;;;;;6.67;100.00;99212.06;5063303;28;20200;-75
2023/12/05 08:08:34;;;;;;;2.33;1.23;;;;;;;6.73;100.00;99211.16;5063586;28;20211;-76
2023/12/05 08:11:00;;;;;;;3.20;1.30;;;;;;;6.73;100.00;99207.75;5062935;28;20687;-75
2023/12/05 08:13:26;;;;;;;2.87;1.27;;;;;;;6.71;100.00;99208.59;5061623;28;20731;-76
2023/12/05 08:15:53;;;;;;;3.50;1.93;;;;;;;6.72;100.00;99204.31;5058968;28;20197;-76
2023/12/05 08:18:19;;;;;;;2.73;1.53;;;;;;;6.77;100.00;99215.41;5065681;28;20774;-75
2023/12/05 08:20:44;;;;;;;3.60;1.70;;;;;;;6.80;100.00;99217.94;5063864;28;20302;-75
2023/12/05 08:23:10;;;;;;;2.97;1.10;;;;;;;6.86;100.00;99210.16;5058614;28;20266;-74
2023/12/05 08:25:35;;;;;;;4.23;1.80;;;;;;;6.93;100.00;99215.22;5066544;28;20639;-74
2023/12/05 08:28:00;;;;;;;1.90;1.10;;;;;;;6.97;100.00;99209.16;5068980;28;20188;-76
2023/12/05 08:30:26;;;;;;;2.17;1.13;;;;;;;7.08;100.00;99209.91;5077246;28;20181;-76
2023/12/05 08:32:51;;;;;;;2.37;1.40;;;;;;;7.08;100.00;99212.47;5074620;28;20209;-76
2023/12/05 08:35:16;;;;;;;1.70;0.97;;;;;;;7.17;100.00;99211.53;5067209;28;20179;-75
2023/12/05 08:37:42;;;;;;;3.67;1.40;;;;;;;7.21;100.00;99213.16;5063837;28;20188;-75
2023/12/05 08:40:08;;;;;;;2.40;1.30;;;;;;;7.26;100.00;99207.97;5076733;28;20188;-75
2023/12/05 08:42:33;;;;;;;3.20;1.37;;;;;;;7.32;100.00;99208.75;5061690;28;20312;-76
2023/12/05 08:45:00;;;;;;;3.53;1.53;;;;;;;7.35;100.00;99209.56;5064566;28;20612;-75
2023/12/05 08:47:26;;;;;;;2.70;1.20;;;;;;;7.36;100.00;99217.28;5061544;28;20222;-75
2023/12/05 08:49:51;;;;;;;2.40;1.13;;;;;;;7.38;100.00;99212.97;5064928;28;20184;-76
2023/12/05 08:52:16;;;;;;;2.60;1.33;;;;;;;7.42;100.00;99214.59;5061734;28;20294;-76
2023/12/05 08:54:42;;;;;;;2.47;1.10;;;;;;;7.37;100.00;99223.25;5064417;28;20192;-76
2023/12/05 08:57:07;;;;;;;1.43;1.10;;;;;;;7.39;100.00;99218.94;5061472;28;20220;-76
2023/12/05 08:59:32;;;;;;;3.33;1.20;;;;;;;7.40;100.00;99218.09;5063271;28;20184;-76
2023/12/05 09:01:58;;;;;;;2.40;1.07;;;;;;;7.46;100.00;99220.59;5063335;28;20232;-77
2023/12/05 09:04:23;;;;;;;2.57;1.20;;;;;;;7.54;100.00;99226.47;5060752;28;20192;-76
2023/12/05 09:06:48;;;;;;;1.57;1.03;;;;;;;7.67;100.00;99211.72;5061702;28;20284;-75
2023/12/05 09:09:14;;;;;;;2.03;1.27;;;;;;;7.75;100.00;99217.59;5064057;28;20188;-75
2023/12/05 09:11:39;;;;;;;2.17;1.20;;;;;;;7.81;100.00;99219.22;5062522;28;20197;-75
2023/12/05 09:14:05;;;;;;;2.40;1.23;;;;;;;7.86;100.00;99224.31;5061948;28;20268;-75
2023/12/05 09:16:32;;;;;;;3.70;1.57;;;;;;;7.96;100.00;99222.44;5064792;28;20205;-76
2023/12/05 09:18:57;;;;;;;1.80;1.13;;;;;;;8.04;100.00;99211.13;5063729;28;20276;-75
2023/12/05 09:21:23;;;;;;;2.43;1.23;;;;;;;8.13;100.00;99217.88;5063147;28;20284;-76
2023/12/05 09:23:48;;;;;;;2.97;0.97;;;;;;;8.21;100.00;99225.47;5062348;28;20212;-76
2023/12/05 09:26:14;;;;;;;3.53;1.00;;;;;;;8.27;100.00;99224.53;5064533;28;20180;-76
2023/12/05 09:28:40;;;;;;;1.30;1.00;;;;;;;8.30;100.00;99232.22;5061278;28;20178;-76
2023/12/05 09:31:05;;;;;;;1.83;1.17;;;;;;;8.31;100.00;99226.19;5061399;28;20207;-77
2023/12/05 09:33:30;;;;;;;1.60;1.10;;;;;;;8.33;100.00;99233.00;5062548;28;20182;-76
2023/12/05 09:35:56;;;;;;;2.20;1.33;;;;;;;8.35;100.00;99236.41;5060876;28;20202;-74
2023/12/05 09:38:21;;;;;;;1.80;0.93;;;;;;;8.42;100.00;99246.63;5062907;28;20186;-76
2023/12/05 09:40:47;;;;;;;2.43;1.10;;;;;;;8.39;100.00;99250.94;5055238;28;20254;-77
2023/12/05 09:43:15;;;;;;;1.60;1.10;;;;;;;8.44;100.00;99248.28;5063606;28;20203;-76
2023/12/05 09:45:43;;;;;;;1.87;1.10;;;;;;;8.40;100.00;99249.22;5063041;28;20189;-76
2023/12/05 09:48:11;;;;;;;3.43;1.10;;;;;;;8.38;100.00;99254.41;5060739;28;20269;-75
2023/12/05 09:50:37;;;;;;;1.57;0.90;;;;;;;8.35;100.00;99249.28;5061369;28;20189;-76
2023/12/05 09:53:02;;;;;;;2.80;1.30;;;;;;;8.31;100.00;99257.97;5059113;28;20212;-76
2023/12/05 09:55:28;;;;;;;0.93;0.77;;;;;;;8.30;100.00;99257.97;5061905;28;20202;-76
2023/12/05 09:57:56;;;;;;;1.43;1.10;;;;;;;8.31;100.00;99259.69;5063196;28;20194;-75
2023/12/05 10:00:22;;;;;;;3.00;1.00;;;;;;;8.30;100.00;99257.97;5064235;28;20200;-76
2023/12/05 10:02:48;;;;;;;1.77;0.80;;;;;;;8.28;100.00;99247.72;5062087;28;20217;-77
2023/12/05 10:05:15;;;;;;;1.90;0.93;;;;;;;8.24;100.00;99262.34;5063496;28;20190;-76
2023/12/05 10:07:43;;;;;;;1.70;1.07;;;;;;;8.22;100.00;99247.78;5061005;28;20216;-75
2023/12/05 10:10:08;;;;;;;1.50;0.83;;;;;;;8.15;100.00;99251.38;5061354;28;20273;-75
2023/12/05 10:12:36;;;;;;;1.97;0.90;;;;;;;8.17;100.00;99253.03;5061036;28;20320;-75
2023/12/05 10:15:02;;;;;;;1.70;0.80;;;;;;;8.15;100.00;99251.38;5061021;28;20266;-77
2023/12/05 10:17:29;;;;;;;1.23;0.90;;;;;;;8.10;100.00;99259.16;5063037;28;20230;-76
2023/12/05 10:19:55;;;;;;;1.17;0.73;;;;;;;8.12;100.00;99254.81;5063790;28;20196;-75
2023/12/05 10:22:21;;;;;;;1.50;0.80;;;;;;;8.13;100.00;99258.25;5060845;28;20213;-75
2023/12/05 10:24:48;;;;;;;2.87;1.03;;;;;;;8.07;100.00;99252.31;5067484;28;20211;-75
2023/12/05 10:27:15;;;;;;;1.83;1.03;;;;;;;8.09;100.00;99258.31;5065596;28;20225;-76
2023/12/05 10:29:42;;;;;;;2.93;1.43;;;;;;;8.11;100.00;99250.53;5071642;28;20273;-76
2023/12/05 10:32:08;;;;;;;2.03;0.90;;;;;;;8.06;100.00;99250.63;5063676;28;20205;-75
2023/12/05 10:34:51;;;;;;;1.40;0.90;;;;;;;8.10;100.00;99243.69;5063206;28;20216;-75
2023/12/05 10:37:21;;;;;;;2.70;1.03;;;;;;;8.04;100.00;99242.06;5058370;28;20268;-75
2023/12/05 10:39:58;;;;;;;2.03;1.13;;;;;;;8.05;100.00;99243.75;5062793;28;20191;-76
2023/12/05 10:42:28;;;;;;;2.47;1.00;;;;;;;8.11;100.00;99240.22;5063048;28;20583;-76
2023/12/05 10:44:53;;;;;;;2.70;0.80;;;;;;;8.12;100.00;99239.34;5060354;28;20192;-76
2023/12/05 10:47:19;;;;;;;2.13;1.30;;;;;;;8.05;100.00;99233.44;5059647;28;20182;-76
2023/12/05 10:49:44;;;;;;;1.83;1.00;;;;;;;8.06;100.00;99242.06;5062455;28;20603;-75
2023/12/05 10:52:13;;;;;;;1.30;0.70;;;;;;;8.08;100.00;99230.84;5061638;28;20241;-75
2023/12/05 10:54:39;;;;;;;1.77;0.90;;;;;;;8.13;100.00;99233.34;5061988;28;20231;-75
2023/12/05 10:57:09;;;;;;;2.33;1.10;;;;;;;8.07;100.00;99234.28;5060405;28;20651;-75
2023/12/05 10:59:35;;;;;;;3.00;1.00;;;;;;;8.11;100.00;99226.50;5061310;28;20608;-75
2023/12/05 11:02:10;;;;;;;2.20;1.30;;;;;;;8.16;100.00;99224.72;5062696;28;20251;-75
2023/12/05 11:04:35;;;;;;;1.67;1.10;;;;;;;8.16;100.00;99228.13;5063307;28;20781;-75
2023/12/05 11:07:01;;;;;;;2.27;1.00;;;;;;;8.25;100.00;99221.97;5064703;28;20193;-75
2023/12/05 11:09:26;;;;;;;1.13;0.97;;;;;;;8.23;100.00;99214.28;5063156;28;20185;-75
2023/12/05 11:11:54;;;;;;;1.50;0.90;;;;;;;8.26;100.00;99213.38;5064385;28;20201;-75
2023/12/05 11:14:21;;;;;;;1.03;0.60;;;;;;;8.32;100.00;99218.41;5062949;28;20185;-77
2023/12/05 11:16:50;;;;;;;1.73;1.00;;;;;;;8.40;100.00;99215.69;5063613;28;20309;-77
2023/12/05 11:19:22;;;;;;;1.00;0.73;;;;;;;8.48;100.00;99219.03;5055684;28;20189;-73
2023/12/05 11:22:16;;;;;;;1.93;0.80;;;;;;;8.57;100.00;99207.72;5056548;28;20213;-77
2023/12/05 11:24:50;;;;;;;0.90;0.60;;;;;;;8.63;100.00;99214.47;5063201;28;20182;-76